Time;durP1;ratioP1;P1;durP2;ratioP2;P2;SDS_P1;SDS_P2;PMS_P1;PMS_P2;Temp;Humidity;BMP_temperature;BMP_pressure;BME280_temperature;BME280_humidity;BME280_pressure;Samples;Min_cycle;Max_cycle;Signal;HPM_P1;HPM_P2
2021/09/21 00:01:58;;;;;;;6.60;3.80;;;;;;;9.22;77.29;102792.41;5035755;28;20100;-66
2021/09/21 00:04:26;;;;;;;6.47;3.65;;;;;;;9.21;77.23;102790.81;5035890;28;20087;-67
2021/09/21 00:06:53;;;;;;;5.78;3.60;;;;;;;9.21;76.79;102789.03;5017465;28;20532;-67
2021/09/21 00:09:18;;;;;;;7.72;3.88;;;;;;;9.28;76.64;102794.47;5035301;28;20018;-66
2021/09/21 00:11:44;;;;;;;6.82;4.18;;;;;;;9.15;77.63;102799.88;5035899;28;20017;-67
2021/09/21 00:14:09;;;;;;;7.82;3.72;;;;;;;9.11;76.79;102807.97;5035878;28;20025;-66
2021/09/21 00:16:34;;;;;;;6.88;3.90;;;;;;;9.05;77.05;102798.97;5035501;28;20029;-66
2021/09/21 00:18:59;;;;;;;6.65;3.63;;;;;;;9.09;77.28;102799.53;5035515;28;20025;-66
2021/09/21 00:21:25;;;;;;;5.85;4.00;;;;;;;9.14;76.96;102799.97;5035951;28;20039;-66
2021/09/21 00:23:50;;;;;;;5.93;3.83;;;;;;;9.27;76.60;102791.09;5035408;28;20017;-66
2021/09/21 00:26:16;;;;;;;6.07;3.90;;;;;;;9.40;76.66;102784.88;5035364;28;20380;-66
2021/09/21 00:28:41;;;;;;;6.45;3.90;;;;;;;9.44;76.70;102784.50;5035099;28;20025;-66
2021/09/21 00:31:09;;;;;;;6.90;3.92;;;;;;;9.38;76.85;102782.44;5034899;28;20028;-66
2021/09/21 00:33:48;;;;;;;7.78;4.00;;;;;;;9.29;76.49;102790.13;5016287;28;20028;-66
2021/09/21 00:36:14;;;;;;;6.63;4.10;;;;;;;9.14;77.30;102793.06;5034773;28;20060;-66
2021/09/21 00:38:40;;;;;;;7.38;4.15;;;;;;;9.14;77.19;102803.38;5034735;28;20021;-66
2021/09/21 00:41:05;;;;;;;9.43;4.40;;;;;;;9.24;77.27;102800.84;5034650;28;20025;-66
2021/09/21 00:43:30;;;;;;;6.85;4.00;;;;;;;9.38;76.34;102791.94;5016827;28;20021;-66
2021/09/21 00:45:56;;;;;;;7.00;3.97;;;;;;;9.26;76.17;102806.69;5034506;28;20108;-66
2021/09/21 00:48:21;;;;;;;8.73;4.00;;;;;;;9.35;76.10;102805.09;5034478;28;20022;-66
2021/09/21 00:50:47;;;;;;;6.65;4.05;;;;;;;9.41;76.31;102804.59;5034443;28;20430;-67
2021/09/21 00:53:13;;;;;;;8.63;4.28;;;;;;;9.40;77.04;102813.28;5016718;28;20032;-66
2021/09/21 00:55:39;;;;;;;9.00;3.90;;;;;;;9.27;76.39;102819.47;5034199;28;20401;-67
2021/09/21 00:58:04;;;;;;;6.55;3.60;;;;;;;9.30;76.50;102813.25;5016497;28;20026;-66
2021/09/21 01:00:29;;;;;;;11.93;4.32;;;;;;;9.29;76.07;102811.59;5034247;28;20021;-66
2021/09/21 01:02:54;;;;;;;6.40;4.00;;;;;;;9.29;76.03;102808.19;5034221;28;20037;-67
2021/09/21 01:05:20;;;;;;;6.03;3.60;;;;;;;9.35;75.86;102807.69;5016394;28;20415;-67
2021/09/21 01:07:45;;;;;;;6.38;3.60;;;;;;;9.33;76.31;102804.44;5034184;28;20025;-66
2021/09/21 01:10:14;;;;;;;6.07;3.60;;;;;;;9.40;76.08;102803.75;5033989;28;20018;-67
2021/09/21 01:12:40;;;;;;;6.20;3.80;;;;;;;9.26;75.64;102802.38;5033955;28;20113;-67
2021/09/21 01:15:07;;;;;;;8.55;4.30;;;;;;;9.26;76.96;102807.53;5033987;28;20030;-67
2021/09/21 01:17:32;;;;;;;9.18;4.00;;;;;;;9.30;76.05;102799.53;5033812;28;20434;-67
2021/09/21 01:19:58;;;;;;;6.72;3.90;;;;;;;9.31;76.02;102789.06;5033915;28;20024;-67
2021/09/21 01:22:24;;;;;;;6.18;3.72;;;;;;;9.43;75.22;102790.59;5033908;28;20151;-67
2021/09/21 01:24:49;;;;;;;11.10;4.00;;;;;;;9.42;75.49;102788.16;5033877;28;20029;-67
2021/09/21 01:27:14;;;;;;;6.65;4.00;;;;;;;9.36;75.85;102781.75;5033761;28;20021;-67
2021/09/21 01:29:40;;;;;;;6.35;3.88;;;;;;;9.34;76.07;102783.63;5015965;28;20033;-66
2021/09/21 01:32:05;;;;;;;5.18;3.42;;;;;;;9.35;76.56;102782.72;5033687;28;20136;-67
2021/09/21 01:34:33;;;;;;;5.68;3.63;;;;;;;9.39;76.00;102778.91;5033707;28;20469;-67
2021/09/21 01:36:58;;;;;;;7.47;4.28;;;;;;;9.39;76.47;102776.34;5033649;28;20043;-67
2021/09/21 01:39:25;;;;;;;6.22;4.20;;;;;;;9.39;76.23;102775.53;5015777;28;20100;-67
2021/09/21 01:41:50;;;;;;;6.50;3.92;;;;;;;9.42;76.59;102778.66;5033513;28;20043;-66
2021/09/21 01:44:16;;;;;;;7.43;4.13;;;;;;;9.36;76.64;102781.75;5033458;28;20025;-67
2021/09/21 01:46:42;;;;;;;9.20;4.93;;;;;;;9.40;77.00;102783.13;5015752;28;20143;-67
2021/09/21 01:49:07;;;;;;;7.78;4.22;;;;;;;9.36;76.60;102780.94;5033309;28;20044;-67
2021/09/21 01:51:36;;;;;;;7.07;4.07;;;;;;;9.27;77.38;102788.50;5033353;28;20022;-67
2021/09/21 01:54:16;;;;;;;5.50;3.83;;;;;;;9.21;76.80;102789.03;5033337;28;20032;-67
2021/09/21 01:59:26;;;;;;;5.40;3.72;;;;;;;9.03;77.23;102793.97;5033582;28;20514;-67
2021/09/21 02:01:51;;;;;;;6.70;3.65;;;;;;;9.10;76.81;102790.88;5034181;28;20033;-66
2021/09/21 02:04:17;;;;;;;6.57;3.63;;;;;;;9.11;76.74;102787.34;5033631;28;20494;-66
2021/09/21 02:06:43;;;;;;;9.43;3.67;;;;;;;9.16;76.26;102774.88;5033846;28;20031;-66
2021/09/21 02:09:10;;;;;;;6.90;3.72;;;;;;;9.24;76.05;102770.72;5033430;28;20021;-67
2021/09/21 02:11:37;;;;;;;5.65;3.65;;;;;;;9.32;76.14;102767.50;5033477;28;20079;-67
2021/09/21 02:14:03;;;;;;;6.78;3.83;;;;;;;9.32;75.96;102764.91;5033389;28;20028;-67
2021/09/21 02:16:30;;;;;;;5.88;3.85;;;;;;;9.31;75.91;102759.88;5033380;28;20033;-67
2021/09/21 02:18:57;;;;;;;9.70;4.20;;;;;;;9.31;76.43;102768.41;5033393;28;20025;-68
2021/09/21 02:21:22;;;;;;;8.85;3.92;;;;;;;9.34;75.68;102773.31;5033375;28;20048;-66
2021/09/21 02:23:50;;;;;;;7.00;4.10;;;;;;;9.40;76.15;102765.06;5015627;28;20022;-66
2021/09/21 02:26:16;;;;;;;9.27;4.28;;;;;;;9.43;75.87;102767.38;5015594;28;20037;-67
2021/09/21 02:28:41;;;;;;;8.85;4.70;;;;;;;9.45;75.48;102762.91;5033103;28;20033;-66
2021/09/21 02:31:07;;;;;;;8.25;4.50;;;;;;;9.47;75.27;102761.03;5033239;28;20108;-66
2021/09/21 02:33:32;;;;;;;7.50;4.18;;;;;;;9.42;76.12;102767.50;5015426;28;20036;-66
2021/09/21 02:35:57;;;;;;;6.10;3.90;;;;;;;9.30;76.90;102771.97;5033160;28;20025;-66
2021/09/21 02:38:22;;;;;;;7.00;3.90;;;;;;;9.19;76.77;102779.78;5033149;28;20428;-66
2021/09/21 02:40:48;;;;;;;6.47;3.90;;;;;;;9.10;76.55;102788.28;5033630;28;20036;-67
2021/09/21 02:43:13;;;;;;;7.13;4.00;;;;;;;9.12;76.45;102796.69;5033069;28;20148;-66
2021/09/21 02:45:39;;;;;;;10.23;5.07;;;;;;;9.13;76.62;102791.44;5033240;28;20032;-66
2021/09/21 02:48:04;;;;;;;7.80;4.28;;;;;;;9.15;76.36;102794.72;5032910;28;20464;-66
2021/09/21 02:50:30;;;;;;;6.10;4.10;;;;;;;9.10;76.60;102803.78;5033163;28;20026;-66
2021/09/21 02:52:55;;;;;;;6.78;3.90;;;;;;;9.04;76.65;102803.31;5032911;28;20387;-67
2021/09/21 02:55:21;;;;;;;6.68;4.30;;;;;;;9.07;76.89;102804.84;5032694;28;20416;-66
2021/09/21 02:57:46;;;;;;;6.57;4.20;;;;;;;8.96;77.08;102810.06;5035887;28;20079;-66
2021/09/21 03:00:14;;;;;;;6.97;4.32;;;;;;;8.84;78.04;102806.72;5036817;28;20027;-66
2021/09/21 03:02:42;;;;;;;8.52;4.53;;;;;;;8.85;78.12;102812.72;5036795;28;20028;-67
2021/09/21 03:05:11;;;;;;;7.55;4.55;;;;;;;8.85;77.54;102810.94;5036746;28;20028;-66
2021/09/21 03:07:44;;;;;;;6.05;4.25;;;;;;;8.92;77.64;102809.50;5019408;28;20052;-66
2021/09/21 03:10:33;;;;;;;7.43;4.53;;;;;;;8.96;77.32;102808.31;5037163;28;20105;-66
2021/09/21 03:13:25;;;;;;;15.30;4.63;;;;;;;8.91;77.99;102812.19;5037192;28;20025;-67
2021/09/21 03:18:34;;;;;;;8.07;4.63;;;;;;;8.85;77.58;102812.72;5037291;28;20084;-67
2021/09/21 03:21:00;;;;;;;8.45;4.60;;;;;;;8.66;78.81;102829.69;5018686;28;20033;-66
2021/09/21 03:23:26;;;;;;;7.88;4.63;;;;;;;8.70;79.13;102831.06;5018624;28;20372;-66
2021/09/21 03:25:52;;;;;;;6.53;4.50;;;;;;;8.71;78.70;102826.72;5036474;28;20034;-66
2021/09/21 03:28:17;;;;;;;7.38;4.50;;;;;;;8.73;78.08;102835.97;5036191;28;20384;-67
2021/09/21 03:30:43;;;;;;;9.40;4.60;;;;;;;8.53;78.47;102837.56;5036180;28;20026;-66
2021/09/21 03:33:08;;;;;;;7.57;4.60;;;;;;;8.55;78.57;102851.16;5036210;28;20049;-67
2021/09/21 03:35:34;;;;;;;10.10;4.60;;;;;;;8.48;78.44;102847.41;5036161;28;20029;-66
2021/09/21 03:37:59;;;;;;;8.52;4.43;;;;;;;8.46;78.96;102848.47;5018404;28;20030;-66
2021/09/21 03:40:24;;;;;;;8.45;4.40;;;;;;;8.47;78.74;102850.94;5036571;28;20024;-66
2021/09/21 03:42:50;;;;;;;10.10;4.38;;;;;;;8.48;77.81;102849.19;5018234;28;20388;-66
2021/09/21 03:45:15;;;;;;;8.95;4.45;;;;;;;8.51;78.61;102841.19;5018206;28;20056;-66
2021/09/21 03:47:41;;;;;;;9.30;4.70;;;;;;;8.39;78.74;102848.16;5035908;28;20417;-66
2021/09/21 03:50:07;;;;;;;6.47;4.50;;;;;;;8.43;78.44;102851.31;5035852;28;20491;-66
2021/09/21 03:52:32;;;;;;;8.73;4.70;;;;;;;8.47;78.29;102844.97;5035806;28;20035;-66
2021/09/21 03:54:58;;;;;;;6.93;4.43;;;;;;;8.58;78.55;102839.78;5035833;28;20375;-67
2021/09/21 03:57:23;;;;;;;8.25;4.63;;;;;;;8.54;78.19;102846.09;5035608;28;20057;-66
2021/09/21 03:59:48;;;;;;;7.38;4.70;;;;;;;8.58;78.08;102844.94;5018011;28;20067;-67
2021/09/21 04:02:14;;;;;;;7.47;4.22;;;;;;;8.68;78.38;102840.66;5035643;28;20021;-66
2021/09/21 04:04:39;;;;;;;7.60;5.00;;;;;;;8.71;78.29;102844.75;5017842;28;20032;-68
2021/09/21 04:07:05;;;;;;;7.78;4.50;;;;;;;8.62;78.32;102842.94;5036163;28;20025;-69
2021/09/21 04:09:30;;;;;;;8.88;4.97;;;;;;;8.71;77.86;102849.91;5034252;28;20040;-66
2021/09/21 04:11:55;;;;;;;11.32;4.93;;;;;;;8.72;77.91;102851.56;5035518;28;20071;-66
2021/09/21 04:14:20;;;;;;;7.28;4.72;;;;;;;8.49;77.57;102856.81;5035367;28;20017;-66
2021/09/21 04:16:46;;;;;;;8.48;4.63;;;;;;;8.34;78.60;102868.28;5017615;28;20029;-65
2021/09/21 04:19:11;;;;;;;8.07;4.82;;;;;;;8.24;79.69;102857.88;5017581;28;20528;-66
2021/09/21 04:21:36;;;;;;;8.85;5.00;;;;;;;8.12;78.17;102866.56;5035372;28;20435;-66
2021/09/21 04:24:02;;;;;;;9.23;5.30;;;;;;;8.16;79.14;102869.72;5035410;28;20025;-66
2021/09/21 04:26:27;;;;;;;10.55;5.47;;;;;;;8.20;78.92;102876.25;5035335;28;20037;-66
2021/09/21 04:28:52;;;;;;;10.05;5.55;;;;;;;8.16;78.66;102873.13;5035946;28;20049;-66
2021/09/21 04:31:25;;;;;;;8.68;5.50;;;;;;;8.16;78.62;102873.13;5017497;28;20075;-66
2021/09/21 04:33:52;;;;;;;9.00;5.50;;;;;;;8.14;78.54;102880.97;5035183;28;20026;-66
2021/09/21 04:36:19;;;;;;;10.20;5.60;;;;;;;8.18;78.50;102873.00;5035186;28;20112;-66
2021/09/21 04:38:44;;;;;;;8.60;5.57;;;;;;;8.33;77.82;102874.38;5034982;28;20097;-65
2021/09/21 04:41:09;;;;;;;9.05;5.43;;;;;;;8.19;78.74;102878.03;5035243;28;20427;-66
2021/09/21 04:43:37;;;;;;;7.85;5.40;;;;;;;8.16;78.82;102888.56;5034939;28;20038;-66
2021/09/21 04:46:07;;;;;;;7.57;5.15;;;;;;;7.98;78.58;102885.66;5034919;28;20029;-65
2021/09/21 04:48:33;;;;;;;9.55;5.63;;;;;;;8.01;79.28;102890.56;5034838;28;20026;-65
2021/09/21 04:50:59;;;;;;;8.18;5.32;;;;;;;7.88;79.77;102888.16;5034882;28;20381;-66
2021/09/21 04:53:24;;;;;;;8.00;5.30;;;;;;;7.84;79.15;102886.72;5034806;28;20025;-65
2021/09/21 04:55:49;;;;;;;11.77;5.97;;;;;;;7.92;79.63;102896.44;5034531;28;20072;-66
2021/09/21 04:58:15;;;;;;;12.13;5.93;;;;;;;7.97;79.58;102899.50;5035293;28;20033;-65
2021/09/21 05:00:40;;;;;;;12.15;5.68;;;;;;;8.04;78.97;102895.50;5034745;28;20048;-66
2021/09/21 05:03:06;;;;;;;10.30;5.80;;;;;;;7.83;78.60;102907.44;5034637;28;20376;-66
2021/09/21 05:05:31;;;;;;;8.20;5.65;;;;;;;7.72;79.59;102907.44;5034568;28;20087;-66
2021/09/21 05:07:58;;;;;;;9.77;5.47;;;;;;;7.69;79.59;102913.63;5034573;28;20025;-66
2021/09/21 05:10:24;;;;;;;9.80;5.97;;;;;;;7.72;79.22;102912.59;5034708;28;20036;-66
2021/09/21 05:12:49;;;;;;;8.85;5.65;;;;;;;7.86;78.94;102907.22;5017550;28;20033;-66
2021/09/21 05:15:14;;;;;;;11.60;5.85;;;;;;;8.01;78.26;102897.50;5034389;28;20028;-66
2021/09/21 05:17:40;;;;;;;14.13;6.10;;;;;;;8.07;79.31;102899.59;5034305;28;20116;-65
2021/09/21 05:20:06;;;;;;;13.88;6.20;;;;;;;8.11;78.75;102904.41;5016321;28;20032;-68
2021/09/21 05:22:32;;;;;;;11.68;5.70;;;;;;;8.10;79.00;102902.75;5034273;28;20033;-65
2021/09/21 05:24:57;;;;;;;11.07;5.72;;;;;;;8.07;78.35;102899.59;5016480;28;20021;-65
2021/09/21 05:27:23;;;;;;;12.15;6.05;;;;;;;7.96;79.11;102899.59;5016332;28;20037;-65
2021/09/21 05:29:48;;;;;;;10.85;5.72;;;;;;;8.05;78.90;102897.13;5034060;28;20030;-65
2021/09/21 05:32:14;;;;;;;11.98;5.80;;;;;;;8.13;78.09;102889.63;5034008;28;20029;-66
2021/09/21 05:34:39;;;;;;;8.82;5.90;;;;;;;8.28;78.19;102897.09;5033828;28;20021;-66
2021/09/21 05:37:04;;;;;;;9.35;5.78;;;;;;;8.35;77.85;102893.13;5033849;28;20465;-66
2021/09/21 05:39:29;;;;;;;9.95;6.25;;;;;;;8.47;77.98;102894.75;5016054;28;20063;-66
2021/09/21 05:41:55;;;;;;;10.35;5.90;;;;;;;8.49;77.81;102892.06;5033947;28;20025;-66
2021/09/21 05:44:20;;;;;;;10.43;5.97;;;;;;;8.51;77.79;102898.72;5033841;28;20563;-66
2021/09/21 05:46:46;;;;;;;13.65;6.05;;;;;;;8.65;77.64;102887.31;5033834;28;20091;-66
2021/09/21 05:49:12;;;;;;;9.90;5.88;;;;;;;8.86;77.78;102896.84;5017425;28;20028;-66
2021/09/21 05:51:37;;;;;;;10.00;5.88;;;;;;;9.03;77.56;102904.03;5034169;28;20364;-66
2021/09/21 05:54:02;;;;;;;14.50;5.45;;;;;;;8.92;77.50;102899.75;5033597;28;20021;-66
2021/09/21 05:56:27;;;;;;;10.38;6.10;;;;;;;9.06;76.68;102888.28;5033448;28;20045;-66
2021/09/21 05:58:53;;;;;;;14.02;6.35;;;;;;;9.12;76.58;102905.03;5033523;28;20105;-66
2021/09/21 06:01:19;;;;;;;10.48;5.93;;;;;;;9.33;76.30;102899.91;5015667;28;20018;-66
2021/09/21 06:03:44;;;;;;;10.75;5.93;;;;;;;9.46;75.97;102905.66;5033299;28;20017;-66
2021/09/21 06:06:09;;;;;;;10.30;6.03;;;;;;;9.63;75.89;102917.16;5033686;28;20029;-67
2021/09/21 06:08:34;;;;;;;12.65;6.03;;;;;;;9.58;76.12;102914.13;5033134;28;20053;-66
2021/09/21 06:11:00;;;;;;;10.23;6.00;;;;;;;9.63;75.63;102919.75;5033204;28;20060;-67
2021/09/21 06:13:25;;;;;;;9.10;5.80;;;;;;;9.71;76.28;102920.75;5033127;28;20549;-65
2021/09/21 06:15:50;;;;;;;11.73;6.35;;;;;;;9.80;76.21;102929.47;5033672;28;20022;-65
2021/09/21 06:21:37;;;;;;;8.15;5.88;;;;;;;9.96;75.31;102936.75;5033601;28;20036;-66
2021/09/21 06:24:03;;;;;;;12.68;6.45;;;;;;;10.02;74.38;102940.59;5033202;28;20096;-66
2021/09/21 06:26:31;;;;;;;10.30;5.63;;;;;;;10.15;74.57;102936.00;5033175;28;20128;-66
2021/09/21 06:28:56;;;;;;;12.77;6.38;;;;;;;10.25;73.97;102933.47;5033004;28;20032;-66
2021/09/21 06:31:22;;;;;;;13.40;6.45;;;;;;;10.42;73.57;102930.25;5032546;28;20380;-66
2021/09/21 06:33:47;;;;;;;13.30;6.53;;;;;;;10.53;73.67;102939.66;5033172;28;20163;-66
2021/09/21 06:36:13;;;;;;;12.02;6.70;;;;;;;10.58;73.47;102953.00;5032932;28;20022;-66
2021/09/21 06:38:38;;;;;;;11.90;6.65;;;;;;;10.62;73.80;102954.38;5032998;28;20032;-66
2021/09/21 06:41:05;;;;;;;10.88;6.47;;;;;;;10.73;73.39;102958.59;5015509;28;20025;-66
2021/09/21 06:43:31;;;;;;;12.10;6.60;;;;;;;10.83;72.60;102956.84;5033068;28;20057;-67
2021/09/21 06:45:57;;;;;;;13.77;6.93;;;;;;;11.03;71.98;102952.50;5032985;28;20127;-68
2021/09/21 06:48:23;;;;;;;12.30;7.20;;;;;;;11.22;72.51;102962.84;5015516;28;20476;-67
2021/09/21 06:50:49;;;;;;;11.02;7.22;;;;;;;11.32;72.74;102965.41;5033123;28;20025;-67
2021/09/21 06:53:14;;;;;;;12.27;7.25;;;;;;;11.36;71.03;102966.75;5032715;28;20478;-67
2021/09/21 06:55:39;;;;;;;14.88;7.25;;;;;;;11.59;71.18;102966.44;5032666;28;20052;-66
2021/09/21 06:58:04;;;;;;;14.15;7.53;;;;;;;11.87;70.40;102962.16;5033057;28;20032;-67
2021/09/21 07:00:30;;;;;;;13.60;7.53;;;;;;;12.07;70.42;102965.50;5014915;28;20107;-66
2021/09/21 07:02:55;;;;;;;18.05;8.00;;;;;;;12.36;68.64;102970.53;5032478;28;20033;-67
2021/09/21 07:05:21;;;;;;;17.45;7.50;;;;;;;12.63;67.63;102962.72;5032720;28;20387;-66
2021/09/21 07:07:50;;;;;;;14.93;6.95;;;;;;;12.94;68.17;102970.13;5014919;28;20025;-67
2021/09/21 07:13:37;;;;;;;24.17;7.25;;;;;;;13.51;65.90;102978.38;5033571;28;20087;-67
2021/09/21 07:16:03;;;;;;;16.30;6.93;;;;;;;13.87;65.72;102986.06;5032614;28;20029;-67
2021/09/21 07:18:29;;;;;;;16.95;6.55;;;;;;;14.33;62.13;102981.38;5015000;28;20033;-66
2021/09/21 07:20:54;;;;;;;18.42;5.93;;;;;;;16.24;55.68;102986.13;5015153;28;20030;-62
2021/09/21 07:23:19;;;;;;;13.82;5.72;;;;;;;18.61;49.58;102990.03;5033079;28;20372;-62
2021/09/21 07:25:45;;;;;;;13.20;5.28;;;;;;;19.09;47.15;102992.91;5033134;28;20033;-62
2021/09/21 07:28:10;;;;;;;12.23;4.90;;;;;;;19.11;47.28;102998.78;5032819;28;20030;-61
2021/09/21 07:30:35;;;;;;;13.52;4.63;;;;;;;18.93;48.88;103005.31;5032606;28;20029;-65
2021/09/21 07:33:01;;;;;;;9.85;4.03;;;;;;;18.80;47.53;103007.00;5032567;28;20464;-62
2021/09/21 07:35:26;;;;;;;6.75;3.88;;;;;;;17.60;52.72;103008.94;5014870;28;20124;-62
2021/09/21 07:37:52;;;;;;;10.93;4.18;;;;;;;17.04;51.99;103018.13;5032414;28;20451;-62
2021/09/21 07:40:20;;;;;;;7.35;4.18;;;;;;;16.91;52.63;103018.72;5014680;28;20017;-63
2021/09/21 07:46:07;;;;;;;7.80;3.85;;;;;;;16.61;54.43;103025.56;5037357;28;20044;-62
2021/09/21 07:48:32;;;;;;;5.90;3.80;;;;;;;16.70;55.38;103025.34;5036923;28;20333;-62
2021/09/21 07:50:58;;;;;;;9.32;4.20;;;;;;;16.23;55.29;103028.88;5036105;28;20030;-60
2021/09/21 07:53:23;;;;;;;8.98;4.32;;;;;;;15.92;55.58;103033.22;5018145;28;20037;-61
2021/09/21 07:55:50;;;;;;;7.57;4.40;;;;;;;15.71;56.94;103031.97;5035526;28;20050;-61
2021/09/21 07:58:17;;;;;;;10.93;4.88;;;;;;;15.51;57.73;103021.06;5036043;28;20416;-62
2021/09/21 08:00:42;;;;;;;7.38;4.85;;;;;;;15.46;59.65;103025.94;5035545;28;20427;-60
2021/09/21 08:03:07;;;;;;;9.57;4.70;;;;;;;15.20;61.34;103026.13;5035641;28;20021;-62
2021/09/21 08:05:33;;;;;;;9.45;5.20;;;;;;;15.06;59.39;103022.38;5035575;28;20491;-62
2021/09/21 08:07:59;;;;;;;10.70;4.45;;;;;;;15.12;57.93;103024.31;5017652;28;20101;-62
2021/09/21 08:10:24;;;;;;;7.80;4.40;;;;;;;15.15;56.42;103030.19;5017663;28;20021;-62
2021/09/21 08:12:50;;;;;;;10.85;4.53;;;;;;;15.35;58.13;103029.69;5036032;28;20515;-61
2021/09/21 08:15:16;;;;;;;9.20;4.82;;;;;;;16.00;59.80;103031.41;5035447;28;20488;-61
2021/09/21 08:17:41;;;;;;;6.75;4.63;;;;;;;17.80;54.05;103030.16;5035241;28;20480;-60
2021/09/21 08:20:07;;;;;;;8.15;4.75;;;;;;;18.69;50.31;103024.78;5035248;28;20412;-62
2021/09/21 08:22:32;;;;;;;9.40;4.35;;;;;;;18.61;51.20;103035.38;5035197;28;20029;-62
2021/09/21 08:25:00;;;;;;;9.50;4.10;;;;;;;21.16;45.47;103039.97;5017456;28;20472;-64
2021/09/21 08:27:25;;;;;;;7.80;4.55;;;;;;;21.79;41.64;103034.25;5035135;28;20021;-62
2021/09/21 08:29:51;;;;;;;7.93;4.30;;;;;;;21.65;44.08;103043.19;5034950;28;20079;-63
2021/09/21 08:32:16;;;;;;;7.55;4.65;;;;;;;21.93;39.97;103038.44;5035117;28;20025;-62
2021/09/21 08:34:42;;;;;;;7.88;3.85;;;;;;;22.53;39.07;103035.56;5034948;28;20033;-62
2021/09/21 08:37:07;;;;;;;7.55;3.85;;;;;;;22.77;39.39;103046.34;5034865;28;20079;-63
2021/09/21 08:39:33;;;;;;;7.55;3.85;;;;;;;22.99;38.15;103047.63;5034886;28;20372;-62
2021/09/21 08:41:58;;;;;;;11.60;4.07;;;;;;;23.58;36.53;103048.06;5034864;28;20079;-64
2021/09/21 08:44:24;;;;;;;8.30;3.92;;;;;;;24.04;36.40;103047.56;5034731;28;20021;-62
2021/09/21 08:46:49;;;;;;;5.70;3.90;;;;;;;23.90;34.56;103054.03;5034691;28;20115;-63
2021/09/21 08:49:15;;;;;;;7.10;4.10;;;;;;;24.89;34.78;103049.22;5034567;28;20029;-62
2021/09/21 08:51:41;;;;;;;5.13;3.22;;;;;;;25.34;34.53;103053.16;5034691;28;20116;-63
2021/09/21 08:54:07;;;;;;;9.60;3.20;;;;;;;25.14;34.51;103043.72;5034129;28;20025;-63
2021/09/21 08:56:32;;;;;;;7.60;2.65;;;;;;;24.95;34.00;103061.53;5034160;28;20086;-62
2021/09/21 08:59:04;;;;;;;4.20;3.22;;;;;;;25.15;33.77;103053.28;5034370;28;20017;-62
2021/09/21 09:01:48;;;;;;;5.72;2.85;;;;;;;25.95;32.28;103049.16;5034298;28;20029;-62
2021/09/21 09:04:16;;;;;;;5.40;3.20;;;;;;;26.03;30.95;103050.63;5016692;28;20025;-62
2021/09/21 09:06:46;;;;;;;7.07;3.00;;;;;;;26.02;29.63;103043.72;5034826;28;20083;-62
2021/09/21 09:09:20;;;;;;;4.70;2.90;;;;;;;26.09;28.95;103044.38;5034238;28;20376;-62
2021/09/21 09:11:50;;;;;;;6.03;3.00;;;;;;;27.10;26.43;103043.66;5034775;28;20036;-63
2021/09/21 09:14:30;;;;;;;5.78;2.75;;;;;;;26.83;25.43;103041.69;5034263;28;20033;-63
2021/09/21 09:17:06;;;;;;;4.60;2.60;;;;;;;26.33;27.02;103042.44;5034164;28;20155;-63
2021/09/21 09:19:34;;;;;;;5.88;2.25;;;;;;;25.59;27.29;103029.88;5016366;28;20067;-63
2021/09/21 09:22:10;;;;;;;6.43;2.60;;;;;;;25.05;29.47;103033.69;5034109;28;20032;-62
2021/09/21 09:24:45;;;;;;;8.43;2.50;;;;;;;24.15;29.20;103032.81;5034471;28;20048;-63
2021/09/21 09:27:10;;;;;;;4.20;2.45;;;;;;;22.65;32.29;103031.19;5034126;28;20025;-63
2021/09/21 09:29:36;;;;;;;5.05;2.90;;;;;;;21.55;34.21;103033.06;5033890;28;20064;-62
2021/09/21 09:32:01;;;;;;;8.00;2.92;;;;;;;21.39;35.06;103029.06;5033972;28;20025;-62
2021/09/21 09:34:28;;;;;;;9.73;3.00;;;;;;;21.33;36.06;103041.19;5016198;28;20025;-62
2021/09/21 09:36:58;;;;;;;4.68;2.83;;;;;;;21.47;36.19;103044.63;5016072;28;20028;-62
2021/09/21 09:39:25;;;;;;;5.45;2.70;;;;;;;21.25;34.97;103056.34;5033910;28;20365;-63
2021/09/21 09:41:53;;;;;;;4.88;2.85;;;;;;;21.14;35.78;103045.44;5033972;28;20075;-63
2021/09/21 09:44:21;;;;;;;6.05;2.75;;;;;;;21.54;36.66;103048.06;5033849;28;20468;-63
2021/09/21 09:46:48;;;;;;;4.85;2.40;;;;;;;21.06;35.78;103042.19;5033594;28;20492;-63
2021/09/21 09:49:19;;;;;;;4.82;2.42;;;;;;;21.46;35.80;103034.31;5033814;28;20021;-63
2021/09/21 09:51:48;;;;;;;3.28;2.17;;;;;;;21.55;35.17;103038.34;5033673;28;20025;-63
2021/09/21 09:54:14;;;;;;;4.32;2.50;;;;;;;21.25;35.73;103036.13;5033565;28;20528;-63
2021/09/21 09:56:41;;;;;;;5.03;2.50;;;;;;;21.29;35.51;103037.34;5033419;28;20072;-64
2021/09/21 09:59:08;;;;;;;4.50;2.60;;;;;;;21.11;35.94;103045.84;5033516;28;20441;-65
2021/09/21 10:01:34;;;;;;;8.35;2.60;;;;;;;21.58;36.61;103051.09;5015721;28;20030;-65
2021/09/21 10:04:01;;;;;;;4.93;2.97;;;;;;;21.21;35.72;103049.91;5033290;28;20437;-65
2021/09/21 10:06:29;;;;;;;9.80;2.88;;;;;;;20.68;36.22;103055.91;5032302;28;20079;-65
2021/09/21 10:08:54;;;;;;;5.13;2.42;;;;;;;21.67;35.41;103043.78;5032802;28;20443;-66
2021/09/21 10:11:20;;;;;;;3.67;2.40;;;;;;;22.04;35.04;103039.63;5033103;28;20031;-65
2021/09/21 10:13:46;;;;;;;5.18;2.90;;;;;;;22.09;34.59;103042.41;5033198;28;20107;-65
2021/09/21 10:16:15;;;;;;;5.05;2.67;;;;;;;22.36;35.34;103037.88;5015381;28;20036;-64
2021/09/21 10:18:44;;;;;;;4.68;2.50;;;;;;;22.65;34.59;103041.75;5033078;28;20021;-63
2021/09/21 10:21:10;;;;;;;4.35;2.67;;;;;;;22.13;34.91;103034.94;5015141;28;20071;-64
2021/09/21 10:23:40;;;;;;;4.68;2.65;;;;;;;22.32;35.87;103039.28;5033386;28;20033;-65
2021/09/21 10:26:18;;;;;;;5.18;2.70;;;;;;;22.01;35.07;103032.13;5033130;28;20025;-65
2021/09/21 10:28:49;;;;;;;5.47;2.83;;;;;;;22.37;35.17;103033.41;5033543;28;20063;-63
2021/09/21 10:31:17;;;;;;;6.38;2.50;;;;;;;22.32;34.65;103035.84;5033025;28;20143;-64
2021/09/21 10:33:43;;;;;;;5.60;2.20;;;;;;;22.40;33.69;103039.06;5015031;28;20052;-63
2021/09/21 10:36:29;;;;;;;5.10;1.90;;;;;;;22.62;32.77;103044.00;5014875;28;20079;-64
2021/09/21 10:39:13;;;;;;;2.42;1.75;;;;;;;22.65;32.24;103046.22;5015518;28;20045;-65
2021/09/21 10:42:01;;;;;;;4.75;2.03;;;;;;;22.42;34.04;103042.28;4999412;28;20127;-62
2021/09/21 10:44:26;;;;;;;5.38;2.10;;;;;;;22.27;33.26;103041.78;5015474;28;20045;-63
2021/09/21 10:46:53;;;;;;;2.88;2.10;;;;;;;22.61;33.18;103043.16;5033133;28;20372;-64
2021/09/21 10:49:33;;;;;;;3.85;2.40;;;;;;;22.41;32.95;103032.78;5014966;28;20099;-63
2021/09/21 10:52:04;;;;;;;3.55;2.00;;;;;;;22.11;32.75;103043.03;5033018;28;20049;-64
2021/09/21 10:54:35;;;;;;;4.20;1.70;;;;;;;22.28;33.25;103040.75;5014941;28;20026;-64
2021/09/21 10:57:06;;;;;;;5.35;2.40;;;;;;;22.40;32.96;103044.31;5032725;28;20089;-65
2021/09/21 10:59:32;;;;;;;4.28;1.90;;;;;;;23.14;32.07;103048.09;5014944;28;20064;-65
2021/09/21 11:01:57;;;;;;;3.65;2.20;;;;;;;22.60;32.77;103052.09;5032920;28;20053;-64
2021/09/21 11:04:23;;;;;;;2.53;1.92;;;;;;;22.54;33.46;103031.88;5032885;28;20072;-64
2021/09/21 11:06:48;;;;;;;5.63;2.28;;;;;;;22.37;33.24;103036.03;5032538;28;20021;-65
2021/09/21 11:09:26;;;;;;;2.47;1.80;;;;;;;22.28;32.92;103038.91;5015026;28;20546;-63
2021/09/21 11:12:12;;;;;;;3.22;1.40;;;;;;;22.77;30.84;103044.50;5014683;28;20028;-64
2021/09/21 11:14:42;;;;;;;2.10;1.70;;;;;;;21.94;32.33;103039.25;5014903;28;20021;-64
2021/09/21 11:17:09;;;;;;;4.55;1.60;;;;;;;21.81;32.70;103033.03;5033202;28;20025;-63
2021/09/21 11:19:35;;;;;;;5.90;1.67;;;;;;;22.15;33.67;103041.56;5036407;28;20025;-65
2021/09/21 11:22:05;;;;;;;3.22;1.30;;;;;;;22.05;32.49;103043.88;5036466;28;20032;-65
2021/09/21 11:24:31;;;;;;;2.42;1.38;;;;;;;21.75;32.08;103040.91;5036405;28;20045;-65
2021/09/21 11:27:02;;;;;;;2.20;1.50;;;;;;;21.72;32.50;103036.91;5018499;28;20139;-65
2021/09/21 11:29:28;;;;;;;4.57;1.50;;;;;;;21.80;32.86;103038.47;5018440;28;20088;-65
2021/09/21 11:31:54;;;;;;;3.13;1.40;;;;;;;22.01;32.46;103035.59;5018474;28;20021;-64
2021/09/21 11:34:21;;;;;;;3.95;2.00;;;;;;;21.51;34.39;103037.94;5036188;28;20072;-66
2021/09/21 11:40:09;;;;;;;2.13;1.35;;;;;;;22.68;32.40;103032.59;5036263;28;20068;-64
2021/09/21 11:42:35;;;;;;;3.58;1.90;;;;;;;22.37;32.76;103030.78;5036057;28;20452;-65
2021/09/21 11:45:07;;;;;;;2.65;1.48;;;;;;;22.55;32.56;103032.69;5018365;28;20143;-65